KLYH/LYH METAR and TAF weather

Enter ICAO airport designator
Station Type Date Time Source
KLYH METAR 2019/04/24 21:54 UTC NOAA

KLYH 242154Z 24004KT 10SM CLR 27/12 A2985 RMK AO2 SLP099 T02720117


Station Type Date Time Source
KLYH Decoded METAR 2019/04/24 21:54 UTC NOAA

LYNCHBURG REGIONAL AIRPORT, VA, United States (KLYH) 37-19N 079-12W 295M
Apr 24, 2019 - 05:54 PM EDT / 2019.04.24 2154 UTC
Wind: from the WSW (240 degrees) at 5 MPH (4 KT):0
Visibility: 10 mile(s):0
Sky conditions: clear
Temperature: 81.0 F (27.2 C)
Dew Point: 53.1 F (11.7 C)
Relative Humidity: 38%
Pressure (altimeter): 29.85 in. Hg (1010 hPa)
ob: KLYH 242154Z 24004KT 10SM CLR 27/12 A2985 RMK AO2 SLP099 T02720117
cycle: 22

Station Type Date Time Source
KLYH TAF 2019/04/24 18:27 UTC NOAA

TAF KLYH 241725Z 2418/2518 29008KT P6SM BKN150
FM242200 25005KT P6SM SCT100
FM250100 VRB03KT P6SM BKN100
FM251500 21004KT P6SM BKN120

Example: see airport list